createdAt,value
2023-04-30T00:00:30.651Z,14.30
2023-04-30T00:03:33.888Z,14.30
2023-04-30T00:06:37.106Z,14.30
2023-04-30T00:09:41.651Z,14.30
2023-04-30T00:12:44.788Z,14.40
2023-04-30T00:15:47.973Z,14.40
2023-04-30T00:18:51.126Z,14.40
2023-04-30T00:21:54.162Z,14.40
2023-04-30T00:24:58.654Z,14.40
2023-04-30T00:28:01.798Z,14.40
2023-04-30T00:31:06.990Z,14.40
2023-04-30T00:34:10.152Z,14.40
2023-04-30T00:37:13.247Z,14.50
2023-04-30T00:40:17.878Z,14.50
2023-04-30T00:43:20.968Z,14.50
2023-04-30T00:46:24.167Z,14.40
2023-04-30T00:49:27.612Z,14.40
2023-04-30T00:52:31.309Z,14.40
2023-04-30T00:55:35.844Z,14.40
2023-04-30T00:58:39.016Z,14.40
2023-04-30T01:01:43.164Z,14.40
2023-04-30T01:04:47.622Z,14.40
2023-04-30T01:07:51.706Z,14.30
2023-04-30T01:11:13.658Z,14.30
2023-04-30T01:14:26.483Z,14.30
2023-04-30T01:17:35.552Z,14.40
2023-04-30T01:20:45.103Z,14.40
2023-04-30T01:24:16.767Z,14.30
2023-04-30T01:27:41.565Z,14.20
2023-04-30T01:30:46.333Z,14.20
2023-04-30T01:33:49.417Z,14.20
2023-04-30T01:37:07.055Z,14.20
2023-04-30T01:40:23.226Z,14.20
2023-04-30T01:43:35.124Z,14.20
2023-04-30T01:46:39.806Z,14.10
2023-04-30T01:49:58.043Z,14.00
2023-04-30T01:53:03.281Z,14.00
2023-04-30T01:56:10.803Z,14.00
2023-04-30T01:59:15.966Z,13.90
2023-04-30T02:02:20.726Z,13.90
2023-04-30T02:05:23.948Z,13.90
2023-04-30T02:08:27.265Z,13.90
2023-04-30T02:11:30.567Z,13.90
2023-04-30T02:14:33.682Z,13.80
2023-04-30T02:17:38.250Z,13.80
2023-04-30T02:20:41.459Z,13.80
2023-04-30T02:23:44.561Z,13.70
2023-04-30T02:26:47.681Z,13.70
2023-04-30T02:29:51.027Z,13.70
2023-04-30T02:32:55.618Z,13.60
2023-04-30T02:36:00.653Z,13.50
2023-04-30T02:39:03.866Z,13.50
2023-04-30T02:42:07.715Z,13.50
2023-04-30T02:45:11.215Z,13.50
2023-04-30T02:48:16.957Z,13.50
2023-04-30T02:51:20.098Z,13.50
2023-04-30T02:54:23.184Z,13.40
2023-04-30T02:57:26.464Z,13.50
2023-04-30T03:00:29.632Z,13.50
2023-04-30T03:03:34.678Z,13.60
2023-04-30T03:06:38.030Z,13.60
2023-04-30T03:09:41.283Z,13.60
2023-04-30T03:12:44.345Z,13.60
2023-04-30T03:15:47.447Z,13.60
2023-04-30T03:18:51.932Z,13.60
2023-04-30T03:21:55.713Z,13.60
2023-04-30T03:24:59.012Z,13.70
2023-04-30T03:28:04.973Z,13.70
2023-04-30T03:31:08.115Z,13.80
2023-04-30T03:34:12.595Z,13.80
2023-04-30T03:37:15.698Z,13.90
2023-04-30T03:40:18.960Z,13.90
2023-04-30T03:43:22.705Z,13.80
2023-04-30T03:46:26.350Z,13.90
2023-04-30T03:49:30.821Z,13.90
2023-04-30T03:52:33.969Z,13.90
2023-04-30T03:55:37.168Z,13.90
2023-04-30T03:58:40.499Z,13.90
2023-04-30T04:01:43.597Z,13.80
2023-04-30T04:04:48.248Z,13.80
2023-04-30T04:07:51.369Z,13.80
2023-04-30T04:10:54.641Z,13.90
2023-04-30T04:13:57.791Z,13.90
2023-04-30T04:17:01.380Z,13.90
2023-04-30T04:20:07.725Z,13.90
2023-04-30T04:23:11.274Z,13.90
2023-04-30T04:26:15.073Z,13.90
2023-04-30T04:29:18.227Z,13.90
2023-04-30T04:32:22.814Z,13.90
2023-04-30T04:35:27.478Z,14.00
2023-04-30T04:38:30.722Z,14.10
2023-04-30T04:41:35.157Z,14.20
2023-04-30T04:44:39.425Z,14.30
2023-04-30T04:47:42.626Z,14.50
2023-04-30T04:50:47.136Z,14.60
2023-04-30T04:53:50.244Z,14.70
2023-04-30T04:56:53.345Z,14.80
2023-04-30T04:59:56.960Z,15.00
2023-04-30T05:03:00.433Z,15.10
2023-04-30T05:06:05.086Z,15.30
2023-04-30T05:09:09.653Z,15.50
2023-04-30T05:12:12.747Z,15.60
2023-04-30T05:15:15.911Z,15.70
2023-04-30T05:18:19.120Z,15.70
2023-04-30T05:21:23.606Z,15.80
2023-04-30T05:24:26.814Z,15.80
2023-04-30T05:27:29.876Z,16.00
2023-04-30T05:30:33.411Z,16.50
2023-04-30T05:33:37.191Z,17.10
2023-04-30T05:36:43.121Z,17.70
2023-04-30T05:39:47.318Z,18.40
2023-04-30T05:42:50.480Z,18.60
2023-04-30T05:45:53.693Z,19.20
2023-04-30T05:48:56.935Z,19.70
2023-04-30T05:52:01.714Z,19.60
2023-04-30T05:55:04.909Z,19.10
2023-04-30T05:58:08.026Z,19.10
2023-04-30T06:01:11.286Z,18.70
2023-04-30T06:04:14.444Z,18.30
2023-04-30T06:07:18.952Z,18.50
2023-04-30T06:10:22.215Z,18.70
2023-04-30T06:13:25.316Z,19.00
2023-04-30T06:16:28.699Z,20.00
2023-04-30T06:19:31.826Z,20.40
2023-04-30T06:22:36.288Z,20.50
2023-04-30T06:25:40.012Z,20.40
2023-04-30T06:28:43.339Z,20.20
2023-04-30T06:31:46.526Z,20.60
2023-04-30T06:34:49.645Z,21.00
2023-04-30T06:37:54.129Z,21.60
2023-04-30T06:40:57.251Z,21.60
2023-04-30T06:44:00.353Z,21.00
2023-04-30T06:47:03.523Z,20.20
2023-04-30T06:50:07.529Z,19.50
2023-04-30T06:53:12.212Z,19.30
2023-04-30T06:56:15.356Z,19.00
2023-04-30T06:59:18.953Z,18.50
2023-04-30T07:02:22.546Z,19.10
2023-04-30T07:05:25.794Z,19.50
2023-04-30T07:08:30.301Z,20.30
2023-04-30T07:11:33.390Z,22.90
2023-04-30T07:14:36.506Z,24.30
2023-04-30T07:17:41.829Z,25.40
2023-04-30T07:20:45.623Z,26.40
2023-04-30T07:23:51.658Z,25.50
2023-04-30T07:26:54.807Z,23.70
2023-04-30T07:29:57.982Z,22.60
2023-04-30T07:33:01.196Z,23.30
2023-04-30T07:36:04.590Z,24.70
2023-04-30T07:39:09.703Z,26.70
2023-04-30T07:42:12.852Z,28.40
2023-04-30T07:45:15.982Z,28.30
2023-04-30T07:48:19.109Z,27.70
2023-04-30T07:51:22.201Z,27.30
2023-04-30T07:54:27.034Z,26.90
2023-04-30T07:57:30.200Z,27.10
2023-04-30T08:00:33.351Z,27.50
2023-04-30T08:03:36.755Z,27.90
2023-04-30T08:06:40.116Z,26.70
2023-04-30T08:09:44.624Z,25.60
2023-04-30T08:12:47.900Z,23.90
2023-04-30T08:15:50.985Z,22.70
2023-04-30T08:18:54.132Z,22.20
2023-04-30T08:21:57.317Z,22.10
2023-04-30T08:25:02.563Z,22.10
2023-04-30T08:28:05.881Z,22.10
2023-04-30T08:31:09.152Z,22.50
2023-04-30T08:34:12.228Z,22.30
2023-04-30T08:37:15.909Z,22.70
2023-04-30T08:40:23.536Z,23.40
2023-04-30T08:43:29.266Z,24.30
2023-04-30T08:46:35.554Z,24.50
2023-04-30T08:49:38.979Z,23.90
2023-04-30T08:52:44.898Z,23.40
2023-04-30T08:55:49.517Z,23.10
2023-04-30T08:58:52.701Z,22.20
2023-04-30T09:01:58.749Z,22.10
2023-04-30T09:05:01.947Z,21.90
2023-04-30T09:08:05.696Z,21.80
2023-04-30T09:11:23.053Z,22.60
2023-04-30T09:14:27.517Z,23.00
2023-04-30T09:17:31.234Z,23.10
2023-04-30T09:20:34.525Z,23.40
2023-04-30T09:23:37.765Z,23.30
2023-04-30T09:26:42.294Z,23.20
2023-04-30T09:29:46.316Z,22.60
2023-04-30T09:32:57.331Z,22.00
2023-04-30T09:36:11.212Z,21.80
2023-04-30T09:39:17.516Z,21.40
2023-04-30T09:42:22.696Z,21.50
2023-04-30T09:45:25.793Z,21.40
2023-04-30T09:48:29.443Z,21.20
2023-04-30T09:51:32.782Z,20.90
2023-04-30T09:54:36.975Z,20.50
2023-04-30T09:57:41.649Z,20.40
2023-04-30T10:00:46.345Z,20.40
2023-04-30T10:03:50.706Z,20.10
2023-04-30T10:06:56.039Z,19.70
2023-04-30T10:10:04.982Z,19.50
2023-04-30T10:13:15.947Z,19.40
2023-04-30T10:16:30.032Z,19.30
2023-04-30T10:19:37.500Z,19.30
2023-04-30T10:22:43.754Z,19.20
2023-04-30T10:25:47.488Z,19.50
2023-04-30T10:28:53.642Z,19.80
2023-04-30T10:31:56.986Z,19.90
2023-04-30T10:35:11.044Z,20.10
2023-04-30T10:38:19.760Z,20.20
2023-04-30T10:41:23.460Z,20.30
2023-04-30T10:44:27.936Z,20.40
2023-04-30T10:47:31.958Z,20.70
2023-04-30T10:50:42.403Z,21.10
2023-04-30T10:53:47.202Z,21.20
2023-04-30T10:56:52.776Z,20.70
2023-04-30T11:00:21.408Z,20.60
2023-04-30T11:03:25.142Z,20.80
2023-04-30T11:06:50.189Z,20.50
2023-04-30T11:09:58.566Z,20.20
2023-04-30T11:13:06.010Z,20.10
2023-04-30T11:16:10.950Z,20.10
2023-04-30T11:19:15.578Z,20.10
2023-04-30T11:22:20.843Z,20.00
2023-04-30T11:25:24.022Z,20.10
2023-04-30T11:28:28.721Z,20.00
2023-04-30T11:31:35.963Z,19.90
2023-04-30T11:34:39.382Z,20.40
2023-04-30T11:37:44.478Z,20.80
2023-04-30T11:40:49.723Z,21.00
2023-04-30T11:43:52.753Z,21.40
2023-04-30T11:46:57.336Z,21.50
2023-04-30T11:50:00.414Z,21.50
2023-04-30T11:53:05.565Z,21.70
2023-04-30T11:56:09.449Z,21.70
2023-04-30T11:59:12.689Z,22.00
2023-04-30T12:02:18.716Z,22.50
2023-04-30T12:05:23.666Z,22.60
2023-04-30T12:08:26.759Z,22.90
2023-04-30T12:11:31.550Z,22.60
2023-04-30T12:14:36.673Z,22.40
2023-04-30T12:17:41.276Z,22.30
2023-04-30T12:20:44.845Z,22.00
2023-04-30T12:23:48.306Z,21.90
2023-04-30T12:26:55.033Z,21.90
2023-04-30T12:29:58.140Z,22.00
2023-04-30T12:33:03.758Z,22.00
2023-04-30T12:36:12.069Z,21.90
2023-04-30T12:39:16.817Z,21.80
2023-04-30T12:42:21.013Z,21.60
2023-04-30T12:45:46.798Z,20.90
2023-04-30T12:48:51.487Z,20.70
2023-04-30T12:51:59.956Z,20.50
2023-04-30T12:55:16.821Z,20.50
2023-04-30T12:58:20.081Z,20.40
2023-04-30T13:01:24.399Z,20.00
2023-04-30T13:04:29.657Z,19.70
2023-04-30T13:07:39.852Z,19.50
2023-04-30T13:10:43.068Z,19.20
2023-04-30T13:13:46.114Z,19.30
2023-04-30T13:16:49.518Z,19.40
2023-04-30T13:19:54.177Z,19.50
2023-04-30T13:22:57.570Z,19.90
2023-04-30T13:26:00.696Z,20.40
2023-04-30T13:29:04.218Z,21.00
2023-04-30T13:32:07.324Z,21.40
2023-04-30T13:35:12.603Z,21.30
2023-04-30T13:38:15.733Z,20.90
2023-04-30T13:41:18.787Z,20.90
2023-04-30T13:44:21.822Z,20.80
2023-04-30T13:47:24.949Z,20.60
2023-04-30T13:50:29.996Z,20.40
2023-04-30T13:53:33.119Z,20.50
2023-04-30T13:56:36.462Z,20.60
2023-04-30T13:59:39.712Z,20.50
2023-04-30T14:02:43.033Z,20.50
2023-04-30T14:05:47.692Z,20.40
2023-04-30T14:08:53.550Z,20.30
2023-04-30T14:11:59.157Z,20.10
2023-04-30T14:15:02.312Z,20.20
2023-04-30T14:18:05.531Z,20.20
2023-04-30T14:21:10.071Z,20.20
2023-04-30T14:24:13.456Z,20.30
2023-04-30T14:27:16.592Z,20.30
2023-04-30T14:30:22.617Z,20.30
2023-04-30T14:33:25.838Z,20.50
2023-04-30T14:36:30.500Z,20.70
2023-04-30T14:39:33.557Z,20.90
2023-04-30T14:42:36.693Z,21.10
2023-04-30T14:45:40.008Z,21.30
2023-04-30T14:48:43.261Z,21.40
2023-04-30T14:51:47.732Z,21.40
2023-04-30T14:54:50.968Z,21.50
2023-04-30T14:57:54.358Z,21.80
2023-04-30T15:00:57.428Z,21.80
2023-04-30T15:04:00.757Z,22.00
2023-04-30T15:07:05.254Z,22.00
2023-04-30T15:10:09.571Z,21.90
2023-04-30T15:13:13.632Z,21.90
2023-04-30T15:16:16.821Z,21.80
2023-04-30T15:19:20.114Z,21.50
2023-04-30T15:22:24.916Z,21.50
2023-04-30T15:25:28.038Z,21.60
2023-04-30T15:28:31.294Z,21.60
2023-04-30T15:31:35.457Z,21.50
2023-04-30T15:34:38.542Z,21.40
2023-04-30T15:37:43.001Z,21.30
2023-04-30T15:40:46.196Z,21.20
2023-04-30T15:43:49.312Z,21.10
2023-04-30T15:46:52.833Z,20.70
2023-04-30T15:49:56.296Z,20.30
2023-04-30T15:53:01.198Z,20.00
2023-04-30T15:56:05.400Z,19.80
2023-04-30T15:59:08.668Z,19.80
2023-04-30T16:02:14.703Z,19.40
2023-04-30T16:05:19.133Z,19.10
2023-04-30T16:08:23.779Z,18.90
2023-04-30T16:11:26.981Z,18.60
2023-04-30T16:14:30.028Z,18.50
2023-04-30T16:17:33.730Z,18.30
2023-04-30T16:20:37.928Z,18.30
2023-04-30T16:23:43.133Z,18.30
2023-04-30T16:26:46.248Z,18.40
2023-04-30T16:29:52.559Z,18.40
2023-04-30T16:32:56.056Z,18.50
2023-04-30T16:35:59.448Z,18.60
2023-04-30T16:39:04.177Z,18.60
2023-04-30T16:42:07.680Z,18.80
2023-04-30T16:45:11.449Z,18.70
2023-04-30T16:48:15.339Z,18.80
2023-04-30T16:51:18.743Z,18.60
2023-04-30T16:54:23.706Z,18.50
2023-04-30T16:57:27.184Z,18.40
2023-04-30T17:00:31.097Z,18.40
2023-04-30T17:03:35.033Z,18.20
2023-04-30T17:06:38.738Z,18.00
2023-04-30T17:09:43.266Z,17.90
2023-04-30T17:12:46.483Z,17.80
2023-04-30T17:15:49.680Z,17.80
2023-04-30T17:18:52.758Z,17.70
2023-04-30T17:21:56.218Z,17.70
2023-04-30T17:25:01.947Z,17.80
2023-04-30T17:28:06.241Z,17.90
2023-04-30T17:31:09.918Z,17.80
2023-04-30T17:34:13.628Z,17.80
2023-04-30T17:37:17.769Z,17.60
2023-04-30T17:40:22.578Z,17.40
2023-04-30T17:43:26.346Z,17.20
2023-04-30T17:46:30.144Z,17.20
2023-04-30T17:49:36.041Z,17.30
2023-04-30T17:52:39.319Z,17.20
2023-04-30T17:55:44.103Z,17.20
2023-04-30T17:58:48.307Z,17.20
2023-04-30T18:01:51.963Z,17.30
2023-04-30T18:04:55.186Z,17.20
2023-04-30T18:07:58.956Z,17.10
2023-04-30T18:11:04.262Z,17.10
2023-04-30T18:14:07.642Z,17.00
2023-04-30T18:17:44.213Z,17.00
2023-04-30T18:20:47.545Z,16.90
2023-04-30T18:23:51.305Z,17.00
2023-04-30T18:26:56.450Z,16.90
2023-04-30T18:30:00.417Z,16.90
2023-04-30T18:33:04.257Z,16.80
2023-04-30T18:36:07.945Z,16.70
2023-04-30T18:39:13.000Z,16.60
2023-04-30T18:42:17.870Z,16.50
2023-04-30T18:45:21.756Z,16.50
2023-04-30T18:48:25.426Z,16.40
2023-04-30T18:51:29.785Z,16.40
2023-04-30T18:54:33.002Z,16.30
2023-04-30T18:57:39.766Z,16.30
2023-04-30T19:00:44.582Z,16.20
2023-04-30T19:03:48.197Z,16.20
2023-04-30T19:06:52.419Z,16.20
2023-04-30T19:09:57.270Z,16.20
2023-04-30T19:13:04.327Z,16.20
2023-04-30T19:16:08.683Z,16.10
2023-04-30T19:19:15.861Z,16.10
2023-04-30T19:22:19.563Z,16.10
2023-04-30T19:25:24.542Z,16.00
2023-04-30T19:28:30.004Z,16.00
2023-04-30T19:31:35.684Z,15.90
2023-04-30T19:34:40.021Z,15.90
2023-04-30T19:37:44.577Z,15.80
2023-04-30T19:40:49.963Z,15.70
2023-04-30T19:43:55.939Z,15.70
2023-04-30T19:46:59.974Z,15.60
2023-04-30T19:50:04.091Z,15.50
2023-04-30T19:53:07.715Z,15.50
2023-04-30T19:56:11.322Z,15.40
2023-04-30T19:59:18.171Z,15.30
2023-04-30T20:02:25.502Z,15.30
2023-04-30T20:05:29.549Z,15.20
2023-04-30T20:08:34.114Z,15.10
2023-04-30T20:11:37.747Z,15.10
2023-04-30T20:14:43.550Z,15.00
2023-04-30T20:17:48.165Z,14.90
2023-04-30T20:20:52.735Z,14.80
2023-04-30T20:24:00.306Z,14.70
2023-04-30T20:27:04.375Z,14.70
2023-04-30T20:30:11.503Z,14.60
2023-04-30T20:33:16.445Z,14.50
2023-04-30T20:36:21.137Z,14.40
2023-04-30T20:39:24.547Z,14.40
2023-04-30T20:42:28.641Z,14.20
2023-04-30T20:45:33.194Z,14.20
2023-04-30T20:48:36.265Z,14.20
2023-04-30T20:51:39.662Z,14.10
2023-04-30T20:54:43.207Z,14.00
2023-04-30T20:57:46.428Z,13.90
2023-04-30T21:00:51.562Z,13.80
2023-04-30T21:03:55.697Z,13.80
2023-04-30T21:06:58.896Z,13.70
2023-04-30T21:10:02.200Z,13.60
2023-04-30T21:13:06.299Z,13.60
2023-04-30T21:16:11.041Z,13.50
2023-04-30T21:19:14.134Z,13.50
2023-04-30T21:22:17.283Z,13.40
2023-04-30T21:25:20.386Z,13.40
2023-04-30T21:28:23.566Z,13.40
2023-04-30T21:31:30.784Z,13.30
2023-04-30T21:34:34.276Z,13.30
2023-04-30T21:37:37.599Z,13.20
2023-04-30T21:40:41.260Z,13.20
2023-04-30T21:43:44.524Z,13.10
2023-04-30T21:46:49.310Z,13.10
2023-04-30T21:49:52.650Z,13.00
2023-04-30T21:52:55.755Z,13.00
2023-04-30T21:55:58.806Z,12.90
2023-04-30T21:59:01.873Z,12.80
2023-04-30T22:02:16.491Z,12.80
2023-04-30T22:05:23.311Z,12.80
2023-04-30T22:08:26.504Z,12.60
2023-04-30T22:11:29.614Z,12.70
2023-04-30T22:14:32.716Z,12.50
2023-04-30T22:17:37.225Z,12.50
2023-04-30T22:20:40.366Z,12.50
2023-04-30T22:23:43.513Z,12.40
2023-04-30T22:26:46.657Z,12.30
2023-04-30T22:29:50.610Z,12.30
2023-04-30T22:32:58.483Z,12.30
2023-04-30T22:36:01.659Z,12.20
2023-04-30T22:39:05.077Z,12.20
2023-04-30T22:42:09.598Z,12.20
2023-04-30T22:45:13.343Z,12.10
2023-04-30T22:48:18.761Z,12.10
2023-04-30T22:51:22.314Z,12.00
2023-04-30T22:54:25.538Z,12.00
2023-04-30T22:57:28.719Z,12.00
2023-04-30T23:00:31.836Z,12.00
2023-04-30T23:03:36.972Z,11.90
2023-04-30T23:06:40.173Z,11.90
2023-04-30T23:09:45.188Z,11.90
2023-04-30T23:12:48.307Z,11.80
2023-04-30T23:15:51.454Z,11.70
2023-04-30T23:18:56.636Z,11.60
2023-04-30T23:21:59.731Z,11.50
2023-04-30T23:25:02.886Z,11.50
2023-04-30T23:28:06.130Z,11.50
2023-04-30T23:31:10.400Z,11.50
2023-04-30T23:34:14.823Z,11.40
2023-04-30T23:37:17.955Z,11.40
2023-04-30T23:40:21.061Z,11.40
2023-04-30T23:43:25.311Z,11.40
2023-04-30T23:46:28.644Z,11.30
2023-04-30T23:49:33.197Z,11.30
2023-04-30T23:52:36.845Z,11.30
2023-04-30T23:55:42.231Z,11.20
2023-04-30T23:58:45.348Z,11.20
